sensor_id;sensor_type;location;lat;lon;timestamp;P1;durP1;ratioP1;P2;durP2;ratioP2
21438;SDS011;10880;50.302;18.736;2023-02-28T00:01:06;24.07;;;8.93;;
21438;SDS011;10880;50.302;18.736;2023-02-28T00:03:33;22.43;;;9.47;;
21438;SDS011;10880;50.302;18.736;2023-02-28T00:06:03;16.50;;;6.50;;
21438;SDS011;10880;50.302;18.736;2023-02-28T00:08:30;16.67;;;7.50;;
21438;SDS011;10880;50.302;18.736;2023-02-28T00:11:05;17.93;;;7.17;;
21438;SDS011;10880;50.302;18.736;2023-02-28T00:13:33;17.83;;;7.10;;
21438;SDS011;10880;50.302;18.736;2023-02-28T00:16:02;18.50;;;7.03;;
21438;SDS011;10880;50.302;18.736;2023-02-28T00:18:31;15.70;;;6.37;;
21438;SDS011;10880;50.302;18.736;2023-02-28T00:20:58;12.53;;;5.57;;
21438;SDS011;10880;50.302;18.736;2023-02-28T00:23:25;14.57;;;5.50;;
21438;SDS011;10880;50.302;18.736;2023-02-28T00:25:52;15.37;;;5.83;;
21438;SDS011;10880;50.302;18.736;2023-02-28T00:28:19;13.73;;;5.73;;
21438;SDS011;10880;50.302;18.736;2023-02-28T00:30:46;14.33;;;5.73;;
21438;SDS011;10880;50.302;18.736;2023-02-28T00:33:13;14.20;;;6.17;;
21438;SDS011;10880;50.302;18.736;2023-02-28T00:35:39;15.17;;;5.77;;
21438;SDS011;10880;50.302;18.736;2023-02-28T00:38:08;11.60;;;6.07;;
21438;SDS011;10880;50.302;18.736;2023-02-28T00:40:35;11.03;;;5.83;;
21438;SDS011;10880;50.302;18.736;2023-02-28T00:43:01;10.67;;;5.17;;
21438;SDS011;10880;50.302;18.736;2023-02-28T00:45:29;10.67;;;4.70;;
21438;SDS011;10880;50.302;18.736;2023-02-28T00:47:56;13.47;;;5.70;;
21438;SDS011;10880;50.302;18.736;2023-02-28T00:50:23;8.53;;;4.83;;
21438;SDS011;10880;50.302;18.736;2023-02-28T00:52:50;8.43;;;4.17;;
21438;SDS011;10880;50.302;18.736;2023-02-28T00:55:16;8.10;;;4.00;;
21438;SDS011;10880;50.302;18.736;2023-02-28T00:57:44;6.20;;;3.93;;
21438;SDS011;10880;50.302;18.736;2023-02-28T01:00:10;8.40;;;4.40;;
21438;SDS011;10880;50.302;18.736;2023-02-28T01:02:38;7.83;;;4.10;;
21438;SDS011;10880;50.302;18.736;2023-02-28T01:05:04;7.33;;;3.97;;
21438;SDS011;10880;50.302;18.736;2023-02-28T01:07:31;8.33;;;4.13;;
21438;SDS011;10880;50.302;18.736;2023-02-28T01:09:57;11.63;;;4.57;;
21438;SDS011;10880;50.302;18.736;2023-02-28T01:12:24;10.13;;;4.70;;
21438;SDS011;10880;50.302;18.736;2023-02-28T01:14:51;11.30;;;4.97;;
21438;SDS011;10880;50.302;18.736;2023-02-28T01:17:17;12.80;;;5.33;;
21438;SDS011;10880;50.302;18.736;2023-02-28T01:19:43;11.53;;;5.17;;
21438;SDS011;10880;50.302;18.736;2023-02-28T01:22:10;10.17;;;5.23;;
21438;SDS011;10880;50.302;18.736;2023-02-28T01:24:37;13.67;;;5.60;;
21438;SDS011;10880;50.302;18.736;2023-02-28T01:27:03;9.20;;;4.80;;
21438;SDS011;10880;50.302;18.736;2023-02-28T01:29:30;22.90;;;7.50;;
21438;SDS011;10880;50.302;18.736;2023-02-28T01:31:59;29.57;;;8.33;;
21438;SDS011;10880;50.302;18.736;2023-02-28T01:34:25;27.77;;;8.60;;
21438;SDS011;10880;50.302;18.736;2023-02-28T01:36:52;28.50;;;8.10;;
21438;SDS011;10880;50.302;18.736;2023-02-28T01:39:18;17.63;;;6.83;;
21438;SDS011;10880;50.302;18.736;2023-02-28T01:41:45;14.27;;;5.70;;
21438;SDS011;10880;50.302;18.736;2023-02-28T01:47:15;8.67;;;4.63;;
21438;SDS011;10880;50.302;18.736;2023-02-28T01:49:42;9.00;;;4.30;;
21438;SDS011;10880;50.302;18.736;2023-02-28T01:52:09;8.83;;;4.50;;
21438;SDS011;10880;50.302;18.736;2023-02-28T01:54:45;8.60;;;4.47;;
21438;SDS011;10880;50.302;18.736;2023-02-28T01:57:17;7.23;;;4.00;;
21438;SDS011;10880;50.302;18.736;2023-02-28T02:00:08;10.53;;;4.63;;
21438;SDS011;10880;50.302;18.736;2023-02-28T02:02:46;11.90;;;5.60;;
21438;SDS011;10880;50.302;18.736;2023-02-28T02:05:20;11.60;;;5.37;;
21438;SDS011;10880;50.302;18.736;2023-02-28T02:07:52;10.83;;;4.93;;
21438;SDS011;10880;50.302;18.736;2023-02-28T02:10:29;10.53;;;5.13;;
21438;SDS011;10880;50.302;18.736;2023-02-28T02:36:47;10.07;;;4.60;;
21438;SDS011;10880;50.302;18.736;2023-02-28T02:42:21;9.57;;;4.73;;
21438;SDS011;10880;50.302;18.736;2023-02-28T02:45:03;8.03;;;4.33;;
21438;SDS011;10880;50.302;18.736;2023-02-28T02:47:53;7.60;;;3.97;;
21438;SDS011;10880;50.302;18.736;2023-02-28T02:50:24;8.77;;;4.17;;
21438;SDS011;10880;50.302;18.736;2023-02-28T02:52:58;10.67;;;4.77;;
21438;SDS011;10880;50.302;18.736;2023-02-28T02:55:33;9.03;;;4.30;;
21438;SDS011;10880;50.302;18.736;2023-02-28T02:58:03;9.83;;;4.57;;
21438;SDS011;10880;50.302;18.736;2023-02-28T03:00:34;8.57;;;3.93;;
21438;SDS011;10880;50.302;18.736;2023-02-28T03:03:05;7.77;;;4.00;;
21438;SDS011;10880;50.302;18.736;2023-02-28T03:05:39;7.80;;;4.27;;
21438;SDS011;10880;50.302;18.736;2023-02-28T03:08:11;9.70;;;4.53;;
21438;SDS011;10880;50.302;18.736;2023-02-28T03:10:40;10.93;;;4.80;;
21438;SDS011;10880;50.302;18.736;2023-02-28T03:15:48;9.63;;;4.17;;
21438;SDS011;10880;50.302;18.736;2023-02-28T03:18:24;10.27;;;5.03;;
21438;SDS011;10880;50.302;18.736;2023-02-28T03:21:06;7.50;;;4.40;;
21438;SDS011;10880;50.302;18.736;2023-02-28T03:26:30;8.50;;;4.10;;
21438;SDS011;10880;50.302;18.736;2023-02-28T03:29:04;7.93;;;3.80;;
21438;SDS011;10880;50.302;18.736;2023-02-28T03:31:50;7.50;;;3.63;;
21438;SDS011;10880;50.302;18.736;2023-02-28T03:34:31;6.93;;;3.97;;
21438;SDS011;10880;50.302;18.736;2023-02-28T03:37:03;7.13;;;3.80;;
21438;SDS011;10880;50.302;18.736;2023-02-28T03:39:40;6.50;;;3.80;;
21438;SDS011;10880;50.302;18.736;2023-02-28T03:42:37;5.47;;;2.90;;
21438;SDS011;10880;50.302;18.736;2023-02-28T03:45:10;6.07;;;3.60;;
21438;SDS011;10880;50.302;18.736;2023-02-28T03:47:51;6.57;;;3.60;;
21438;SDS011;10880;50.302;18.736;2023-02-28T03:50:21;7.03;;;3.63;;
21438;SDS011;10880;50.302;18.736;2023-02-28T03:52:55;5.57;;;3.50;;
21438;SDS011;10880;50.302;18.736;2023-02-28T03:55:32;5.77;;;3.60;;
21438;SDS011;10880;50.302;18.736;2023-02-28T03:58:11;8.87;;;3.97;;
21438;SDS011;10880;50.302;18.736;2023-02-28T04:00:49;6.73;;;3.80;;
21438;SDS011;10880;50.302;18.736;2023-02-28T04:03:21;7.57;;;4.03;;
21438;SDS011;10880;50.302;18.736;2023-02-28T04:05:52;7.70;;;4.07;;
21438;SDS011;10880;50.302;18.736;2023-02-28T04:08:21;8.10;;;4.10;;
21438;SDS011;10880;50.302;18.736;2023-02-28T04:11:00;8.93;;;4.20;;
21438;SDS011;10880;50.302;18.736;2023-02-28T04:13:33;7.80;;;4.00;;
21438;SDS011;10880;50.302;18.736;2023-02-28T04:16:00;8.33;;;4.77;;
21438;SDS011;10880;50.302;18.736;2023-02-28T04:18:27;9.37;;;4.70;;
21438;SDS011;10880;50.302;18.736;2023-02-28T04:20:54;8.97;;;5.00;;
21438;SDS011;10880;50.302;18.736;2023-02-28T04:23:20;10.83;;;4.60;;
21438;SDS011;10880;50.302;18.736;2023-02-28T04:25:47;7.43;;;4.00;;
21438;SDS011;10880;50.302;18.736;2023-02-28T04:28:16;8.73;;;4.67;;
21438;SDS011;10880;50.302;18.736;2023-02-28T04:30:43;10.93;;;4.40;;
21438;SDS011;10880;50.302;18.736;2023-02-28T04:33:12;10.20;;;4.87;;
21438;SDS011;10880;50.302;18.736;2023-02-28T04:35:39;6.97;;;3.97;;
21438;SDS011;10880;50.302;18.736;2023-02-28T04:38:06;6.63;;;4.10;;
21438;SDS011;10880;50.302;18.736;2023-02-28T04:40:33;10.43;;;4.70;;
21438;SDS011;10880;50.302;18.736;2023-02-28T04:43:01;10.00;;;5.43;;
21438;SDS011;10880;50.302;18.736;2023-02-28T04:45:29;13.03;;;5.97;;
21438;SDS011;10880;50.302;18.736;2023-02-28T04:47:57;14.27;;;6.47;;
21438;SDS011;10880;50.302;18.736;2023-02-28T04:50:24;15.03;;;7.17;;
21438;SDS011;10880;50.302;18.736;2023-02-28T04:52:54;16.70;;;6.30;;
21438;SDS011;10880;50.302;18.736;2023-02-28T04:55:20;13.37;;;6.80;;
21438;SDS011;10880;50.302;18.736;2023-02-28T04:57:47;19.47;;;8.10;;
21438;SDS011;10880;50.302;18.736;2023-02-28T05:00:14;10.80;;;5.73;;
21438;SDS011;10880;50.302;18.736;2023-02-28T05:02:42;13.97;;;5.90;;
21438;SDS011;10880;50.302;18.736;2023-02-28T05:05:09;12.53;;;5.33;;
21438;SDS011;10880;50.302;18.736;2023-02-28T05:07:38;11.77;;;5.87;;
21438;SDS011;10880;50.302;18.736;2023-02-28T05:10:05;12.17;;;5.47;;
21438;SDS011;10880;50.302;18.736;2023-02-28T05:12:31;11.47;;;5.63;;
21438;SDS011;10880;50.302;18.736;2023-02-28T05:14:58;11.47;;;5.27;;
21438;SDS011;10880;50.302;18.736;2023-02-28T05:17:25;13.07;;;5.10;;
21438;SDS011;10880;50.302;18.736;2023-02-28T05:19:52;9.27;;;4.60;;
21438;SDS011;10880;50.302;18.736;2023-02-28T05:22:18;9.00;;;5.10;;
21438;SDS011;10880;50.302;18.736;2023-02-28T05:24:45;11.27;;;5.23;;
21438;SDS011;10880;50.302;18.736;2023-02-28T05:27:11;9.60;;;5.10;;
21438;SDS011;10880;50.302;18.736;2023-02-28T05:29:38;13.50;;;6.17;;
21438;SDS011;10880;50.302;18.736;2023-02-28T05:32:11;14.57;;;6.80;;
21438;SDS011;10880;50.302;18.736;2023-02-28T05:34:38;15.03;;;6.53;;
21438;SDS011;10880;50.302;18.736;2023-02-28T05:37:06;12.30;;;5.87;;
21438;SDS011;10880;50.302;18.736;2023-02-28T05:39:38;12.27;;;5.47;;
21438;SDS011;10880;50.302;18.736;2023-02-28T05:42:12;11.33;;;6.03;;
21438;SDS011;10880;50.302;18.736;2023-02-28T05:44:38;10.57;;;5.03;;
21438;SDS011;10880;50.302;18.736;2023-02-28T05:47:08;9.10;;;5.17;;
21438;SDS011;10880;50.302;18.736;2023-02-28T05:49:34;12.00;;;5.07;;
21438;SDS011;10880;50.302;18.736;2023-02-28T05:52:01;11.30;;;5.40;;
21438;SDS011;10880;50.302;18.736;2023-02-28T05:54:27;11.10;;;5.53;;
21438;SDS011;10880;50.302;18.736;2023-02-28T05:56:53;9.40;;;4.97;;
21438;SDS011;10880;50.302;18.736;2023-02-28T05:59:20;16.90;;;6.87;;
21438;SDS011;10880;50.302;18.736;2023-02-28T06:01:46;20.17;;;6.67;;
21438;SDS011;10880;50.302;18.736;2023-02-28T06:04:18;23.00;;;6.80;;
21438;SDS011;10880;50.302;18.736;2023-02-28T06:06:48;23.27;;;7.03;;
21438;SDS011;10880;50.302;18.736;2023-02-28T06:09:16;25.53;;;7.60;;
21438;SDS011;10880;50.302;18.736;2023-02-28T06:11:43;24.50;;;7.90;;
21438;SDS011;10880;50.302;18.736;2023-02-28T06:14:16;24.33;;;7.23;;
21438;SDS011;10880;50.302;18.736;2023-02-28T06:16:44;22.40;;;6.80;;
21438;SDS011;10880;50.302;18.736;2023-02-28T06:19:11;20.70;;;6.87;;
21438;SDS011;10880;50.302;18.736;2023-02-28T06:21:38;19.40;;;6.63;;
21438;SDS011;10880;50.302;18.736;2023-02-28T06:24:05;20.77;;;7.10;;
21438;SDS011;10880;50.302;18.736;2023-02-28T06:26:31;18.47;;;6.33;;
21438;SDS011;10880;50.302;18.736;2023-02-28T06:28:58;18.07;;;6.60;;
21438;SDS011;10880;50.302;18.736;2023-02-28T06:31:26;13.63;;;5.73;;
21438;SDS011;10880;50.302;18.736;2023-02-28T06:33:54;15.80;;;6.20;;
21438;SDS011;10880;50.302;18.736;2023-02-28T06:36:22;11.30;;;5.37;;
21438;SDS011;10880;50.302;18.736;2023-02-28T06:38:49;11.97;;;5.53;;
21438;SDS011;10880;50.302;18.736;2023-02-28T06:41:21;15.23;;;7.23;;
21438;SDS011;10880;50.302;18.736;2023-02-28T06:43:50;25.57;;;9.60;;
21438;SDS011;10880;50.302;18.736;2023-02-28T06:46:17;20.90;;;7.90;;
21438;SDS011;10880;50.302;18.736;2023-02-28T06:48:44;18.37;;;7.17;;
21438;SDS011;10880;50.302;18.736;2023-02-28T06:51:15;19.20;;;7.70;;
21438;SDS011;10880;50.302;18.736;2023-02-28T06:53:43;19.03;;;8.03;;
21438;SDS011;10880;50.302;18.736;2023-02-28T06:56:12;16.57;;;7.07;;
21438;SDS011;10880;50.302;18.736;2023-02-28T06:58:40;15.73;;;7.27;;
21438;SDS011;10880;50.302;18.736;2023-02-28T07:01:07;17.33;;;7.40;;
21438;SDS011;10880;50.302;18.736;2023-02-28T07:03:35;13.00;;;5.90;;
21438;SDS011;10880;50.302;18.736;2023-02-28T07:06:01;23.07;;;9.53;;
21438;SDS011;10880;50.302;18.736;2023-02-28T07:08:29;13.87;;;6.20;;
21438;SDS011;10880;50.302;18.736;2023-02-28T07:10:57;18.53;;;7.60;;
21438;SDS011;10880;50.302;18.736;2023-02-28T07:13:24;22.93;;;9.73;;
21438;SDS011;10880;50.302;18.736;2023-02-28T07:15:58;23.90;;;9.57;;
21438;SDS011;10880;50.302;18.736;2023-02-28T07:18:27;22.53;;;8.60;;
21438;SDS011;10880;50.302;18.736;2023-02-28T07:20:53;29.63;;;12.53;;
21438;SDS011;10880;50.302;18.736;2023-02-28T07:23:20;32.47;;;12.57;;
21438;SDS011;10880;50.302;18.736;2023-02-28T07:25:47;26.37;;;9.90;;
21438;SDS011;10880;50.302;18.736;2023-02-28T07:28:15;37.33;;;14.33;;
21438;SDS011;10880;50.302;18.736;2023-02-28T07:30:41;33.67;;;13.20;;
21438;SDS011;10880;50.302;18.736;2023-02-28T07:33:09;23.97;;;10.50;;
21438;SDS011;10880;50.302;18.736;2023-02-28T07:35:39;22.37;;;9.83;;
21438;SDS011;10880;50.302;18.736;2023-02-28T07:38:06;23.87;;;9.80;;
21438;SDS011;10880;50.302;18.736;2023-02-28T07:40:37;15.30;;;6.67;;
21438;SDS011;10880;50.302;18.736;2023-02-28T07:43:04;16.70;;;7.27;;
21438;SDS011;10880;50.302;18.736;2023-02-28T07:45:31;17.60;;;7.33;;
21438;SDS011;10880;50.302;18.736;2023-02-28T07:48:00;21.23;;;10.00;;
21438;SDS011;10880;50.302;18.736;2023-02-28T07:50:29;25.47;;;10.97;;
21438;SDS011;10880;50.302;18.736;2023-02-28T07:52:59;31.97;;;11.90;;
21438;SDS011;10880;50.302;18.736;2023-02-28T07:55:26;26.40;;;11.40;;
21438;SDS011;10880;50.302;18.736;2023-02-28T07:57:56;33.03;;;13.60;;
21438;SDS011;10880;50.302;18.736;2023-02-28T08:00:23;26.67;;;10.73;;
21438;SDS011;10880;50.302;18.736;2023-02-28T08:02:50;26.03;;;11.03;;
21438;SDS011;10880;50.302;18.736;2023-02-28T08:05:17;24.73;;;11.13;;
21438;SDS011;10880;50.302;18.736;2023-02-28T08:07:44;22.83;;;9.57;;
21438;SDS011;10880;50.302;18.736;2023-02-28T08:10:10;26.83;;;9.97;;
21438;SDS011;10880;50.302;18.736;2023-02-28T08:12:37;26.80;;;11.20;;
21438;SDS011;10880;50.302;18.736;2023-02-28T08:15:03;21.47;;;10.00;;
21438;SDS011;10880;50.302;18.736;2023-02-28T08:17:30;25.30;;;9.70;;
21438;SDS011;10880;50.302;18.736;2023-02-28T08:19:57;15.53;;;7.57;;
21438;SDS011;10880;50.302;18.736;2023-02-28T08:22:23;24.77;;;10.33;;
21438;SDS011;10880;50.302;18.736;2023-02-28T08:24:50;22.77;;;10.10;;
21438;SDS011;10880;50.302;18.736;2023-02-28T08:27:17;17.00;;;8.17;;
21438;SDS011;10880;50.302;18.736;2023-02-28T08:29:43;19.77;;;8.10;;
21438;SDS011;10880;50.302;18.736;2023-02-28T08:32:13;23.00;;;9.93;;
21438;SDS011;10880;50.302;18.736;2023-02-28T08:34:39;21.63;;;9.40;;
21438;SDS011;10880;50.302;18.736;2023-02-28T08:37:06;20.17;;;9.10;;
21438;SDS011;10880;50.302;18.736;2023-02-28T08:39:35;18.83;;;8.90;;
21438;SDS011;10880;50.302;18.736;2023-02-28T08:42:02;16.20;;;8.33;;
21438;SDS011;10880;50.302;18.736;2023-02-28T08:44:32;16.87;;;7.13;;
21438;SDS011;10880;50.302;18.736;2023-02-28T08:46:59;27.37;;;11.17;;
21438;SDS011;10880;50.302;18.736;2023-02-28T08:49:25;23.33;;;10.70;;
21438;SDS011;10880;50.302;18.736;2023-02-28T08:51:52;21.20;;;8.83;;
21438;SDS011;10880;50.302;18.736;2023-02-28T08:54:23;30.60;;;12.57;;
21438;SDS011;10880;50.302;18.736;2023-02-28T08:56:50;21.57;;;9.97;;
21438;SDS011;10880;50.302;18.736;2023-02-28T08:59:16;15.73;;;7.63;;
21438;SDS011;10880;50.302;18.736;2023-02-28T09:01:43;14.43;;;7.03;;
21438;SDS011;10880;50.302;18.736;2023-02-28T09:04:09;23.07;;;10.70;;
21438;SDS011;10880;50.302;18.736;2023-02-28T09:06:37;22.03;;;9.80;;
21438;SDS011;10880;50.302;18.736;2023-02-28T09:09:04;20.93;;;9.07;;
21438;SDS011;10880;50.302;18.736;2023-02-28T09:11:33;19.23;;;9.10;;
21438;SDS011;10880;50.302;18.736;2023-02-28T09:14:03;18.93;;;8.87;;
21438;SDS011;10880;50.302;18.736;2023-02-28T09:16:31;21.87;;;9.17;;
21438;SDS011;10880;50.302;18.736;2023-02-28T09:18:58;14.47;;;7.50;;
21438;SDS011;10880;50.302;18.736;2023-02-28T09:21:25;15.63;;;7.70;;
21438;SDS011;10880;50.302;18.736;2023-02-28T09:23:53;21.33;;;9.63;;
21438;SDS011;10880;50.302;18.736;2023-02-28T09:26:24;16.70;;;8.70;;
21438;SDS011;10880;50.302;18.736;2023-02-28T09:28:55;15.80;;;8.13;;
21438;SDS011;10880;50.302;18.736;2023-02-28T09:31:25;14.70;;;7.30;;
21438;SDS011;10880;50.302;18.736;2023-02-28T09:33:54;13.87;;;6.97;;
21438;SDS011;10880;50.302;18.736;2023-02-28T09:36:22;15.17;;;7.47;;
21438;SDS011;10880;50.302;18.736;2023-02-28T09:38:50;17.17;;;7.90;;
21438;SDS011;10880;50.302;18.736;2023-02-28T09:41:23;21.97;;;10.83;;
21438;SDS011;10880;50.302;18.736;2023-02-28T09:43:59;20.53;;;9.40;;
21438;SDS011;10880;50.302;18.736;2023-02-28T09:46:38;15.27;;;7.63;;
21438;SDS011;10880;50.302;18.736;2023-02-28T09:49:13;13.80;;;6.90;;
21438;SDS011;10880;50.302;18.736;2023-02-28T09:54:31;12.83;;;6.40;;
21438;SDS011;10880;50.302;18.736;2023-02-28T09:59:44;12.17;;;6.97;;
21438;SDS011;10880;50.302;18.736;2023-02-28T10:02:41;16.63;;;7.80;;
21438;SDS011;10880;50.302;18.736;2023-02-28T10:05:14;13.90;;;6.93;;
21438;SDS011;10880;50.302;18.736;2023-02-28T10:07:48;17.57;;;8.17;;
21438;SDS011;10880;50.302;18.736;2023-02-28T10:10:32;14.27;;;6.70;;
21438;SDS011;10880;50.302;18.736;2023-02-28T10:13:02;15.10;;;7.80;;
21438;SDS011;10880;50.302;18.736;2023-02-28T10:15:32;16.40;;;8.27;;
21438;SDS011;10880;50.302;18.736;2023-02-28T10:18:02;20.93;;;9.43;;
21438;SDS011;10880;50.302;18.736;2023-02-28T10:20:33;14.77;;;7.93;;
21438;SDS011;10880;50.302;18.736;2023-02-28T10:26:13;15.10;;;8.13;;
21438;SDS011;10880;50.302;18.736;2023-02-28T10:28:46;18.03;;;9.13;;
21438;SDS011;10880;50.302;18.736;2023-02-28T10:31:17;17.57;;;8.47;;
21438;SDS011;10880;50.302;18.736;2023-02-28T10:33:45;20.13;;;9.13;;
21438;SDS011;10880;50.302;18.736;2023-02-28T10:36:13;19.27;;;9.33;;
21438;SDS011;10880;50.302;18.736;2023-02-28T10:38:42;16.77;;;9.10;;
21438;SDS011;10880;50.302;18.736;2023-02-28T10:41:18;19.67;;;8.80;;
21438;SDS011;10880;50.302;18.736;2023-02-28T10:44:40;16.37;;;8.30;;
21438;SDS011;10880;50.302;18.736;2023-02-28T10:46:49;15.57;;;7.50;;
21438;SDS011;10880;50.302;18.736;2023-02-28T10:49:17;17.23;;;8.57;;
21438;SDS011;10880;50.302;18.736;2023-02-28T10:51:49;17.87;;;9.60;;
21438;SDS011;10880;50.302;18.736;2023-02-28T10:54:26;17.10;;;8.40;;
21438;SDS011;10880;50.302;18.736;2023-02-28T10:59:39;16.17;;;9.00;;
21438;SDS011;10880;50.302;18.736;2023-02-28T11:08:05;27.20;;;12.83;;
21438;SDS011;10880;50.302;18.736;2023-02-28T11:10:43;22.03;;;10.40;;
21438;SDS011;10880;50.302;18.736;2023-02-28T11:13:24;16.73;;;9.07;;
21438;SDS011;10880;50.302;18.736;2023-02-28T11:15:55;20.00;;;10.27;;
21438;SDS011;10880;50.302;18.736;2023-02-28T11:18:27;16.63;;;8.93;;
21438;SDS011;10880;50.302;18.736;2023-02-28T11:21:11;17.97;;;9.40;;
21438;SDS011;10880;50.302;18.736;2023-02-28T11:23:46;19.60;;;10.13;;
21438;SDS011;10880;50.302;18.736;2023-02-28T11:26:18;22.37;;;11.00;;
21438;SDS011;10880;50.302;18.736;2023-02-28T11:32:01;12.70;;;7.40;;
21438;SDS011;10880;50.302;18.736;2023-02-28T11:34:28;14.10;;;8.00;;
21438;SDS011;10880;50.302;18.736;2023-02-28T11:36:55;15.67;;;9.23;;
21438;SDS011;10880;50.302;18.736;2023-02-28T11:39:24;15.07;;;8.27;;
21438;SDS011;10880;50.302;18.736;2023-02-28T11:42:07;13.77;;;8.07;;
21438;SDS011;10880;50.302;18.736;2023-02-28T11:47:48;15.83;;;8.53;;
21438;SDS011;10880;50.302;18.736;2023-02-28T11:56:02;10.93;;;6.13;;
21438;SDS011;10880;50.302;18.736;2023-02-28T12:07:15;15.87;;;8.33;;
21438;SDS011;10880;50.302;18.736;2023-02-28T12:18:25;18.17;;;8.40;;
21438;SDS011;10880;50.302;18.736;2023-02-28T12:21:09;20.63;;;10.97;;
21438;SDS011;10880;50.302;18.736;2023-02-28T12:24:24;20.27;;;10.27;;
21438;SDS011;10880;50.302;18.736;2023-02-28T12:26:49;19.83;;;10.27;;
21438;SDS011;10880;50.302;18.736;2023-02-28T12:29:29;16.40;;;9.40;;
21438;SDS011;10880;50.302;18.736;2023-02-28T12:34:31;14.47;;;8.10;;
21438;SDS011;10880;50.302;18.736;2023-02-28T12:37:16;16.87;;;7.97;;
21438;SDS011;10880;50.302;18.736;2023-02-28T12:39:51;13.30;;;7.27;;
21438;SDS011;10880;50.302;18.736;2023-02-28T12:42:29;15.23;;;8.10;;
21438;SDS011;10880;50.302;18.736;2023-02-28T12:45:02;11.93;;;6.80;;
21438;SDS011;10880;50.302;18.736;2023-02-28T12:47:37;13.90;;;6.67;;
21438;SDS011;10880;50.302;18.736;2023-02-28T12:50:07;10.20;;;5.87;;
21438;SDS011;10880;50.302;18.736;2023-02-28T12:56:05;11.37;;;5.30;;
21438;SDS011;10880;50.302;18.736;2023-02-28T12:58:44;11.80;;;6.57;;
21438;SDS011;10880;50.302;18.736;2023-02-28T13:09:26;17.20;;;8.17;;
21438;SDS011;10880;50.302;18.736;2023-02-28T13:11:55;15.83;;;8.23;;
21438;SDS011;10880;50.302;18.736;2023-02-28T13:16:57;14.20;;;7.70;;
21438;SDS011;10880;50.302;18.736;2023-02-28T13:19:35;10.87;;;6.27;;
21438;SDS011;10880;50.302;18.736;2023-02-28T13:25:01;10.73;;;6.67;;
21438;SDS011;10880;50.302;18.736;2023-02-28T13:27:38;16.27;;;8.77;;
21438;SDS011;10880;50.302;18.736;2023-02-28T13:30:59;12.87;;;7.43;;
21438;SDS011;10880;50.302;18.736;2023-02-28T13:33:21;13.33;;;7.73;;
21438;SDS011;10880;50.302;18.736;2023-02-28T13:38:38;10.53;;;5.73;;
21438;SDS011;10880;50.302;18.736;2023-02-28T13:52:07;12.73;;;6.53;;
21438;SDS011;10880;50.302;18.736;2023-02-28T13:54:54;16.57;;;8.33;;
21438;SDS011;10880;50.302;18.736;2023-02-28T13:57:41;13.93;;;7.80;;
21438;SDS011;10880;50.302;18.736;2023-02-28T14:08:47;13.40;;;8.20;;
21438;SDS011;10880;50.302;18.736;2023-02-28T14:11:44;11.30;;;6.20;;
21438;SDS011;10880;50.302;18.736;2023-02-28T14:17:03;13.90;;;7.27;;
21438;SDS011;10880;50.302;18.736;2023-02-28T14:19:43;10.87;;;6.10;;
21438;SDS011;10880;50.302;18.736;2023-02-28T14:22:38;12.10;;;7.00;;
21438;SDS011;10880;50.302;18.736;2023-02-28T14:25:23;11.80;;;7.03;;
21438;SDS011;10880;50.302;18.736;2023-02-28T14:30:29;12.13;;;7.07;;
21438;SDS011;10880;50.302;18.736;2023-02-28T14:36:20;17.30;;;8.50;;
21438;SDS011;10880;50.302;18.736;2023-02-28T14:38:59;11.53;;;6.73;;
21438;SDS011;10880;50.302;18.736;2023-02-28T14:41:32;11.07;;;6.40;;
21438;SDS011;10880;50.302;18.736;2023-02-28T14:44:03;11.60;;;6.20;;
21438;SDS011;10880;50.302;18.736;2023-02-28T14:46:50;11.87;;;7.07;;
21438;SDS011;10880;50.302;18.736;2023-02-28T14:49:29;12.90;;;6.80;;
21438;SDS011;10880;50.302;18.736;2023-02-28T14:54:36;7.20;;;4.97;;
21438;SDS011;10880;50.302;18.736;2023-02-28T14:57:03;8.33;;;5.07;;
21438;SDS011;10880;50.302;18.736;2023-02-28T14:59:34;13.83;;;7.47;;
21438;SDS011;10880;50.302;18.736;2023-02-28T15:04:54;11.67;;;6.60;;
21438;SDS011;10880;50.302;18.736;2023-02-28T15:07:27;12.63;;;7.30;;
21438;SDS011;10880;50.302;18.736;2023-02-28T15:12:56;10.23;;;6.30;;
21438;SDS011;10880;50.302;18.736;2023-02-28T15:18:06;10.13;;;5.57;;
21438;SDS011;10880;50.302;18.736;2023-02-28T15:20:41;13.73;;;7.27;;
21438;SDS011;10880;50.302;18.736;2023-02-28T15:23:09;10.30;;;6.13;;
21438;SDS011;10880;50.302;18.736;2023-02-28T15:25:37;11.03;;;6.70;;
21438;SDS011;10880;50.302;18.736;2023-02-28T15:28:09;12.07;;;7.47;;
21438;SDS011;10880;50.302;18.736;2023-02-28T15:33:57;10.30;;;5.93;;
21438;SDS011;10880;50.302;18.736;2023-02-28T15:36:29;12.13;;;6.43;;
21438;SDS011;10880;50.302;18.736;2023-02-28T15:38:59;12.73;;;7.53;;
21438;SDS011;10880;50.302;18.736;2023-02-28T15:41:30;17.40;;;7.97;;
21438;SDS011;10880;50.302;18.736;2023-02-28T15:44:17;18.13;;;8.70;;
21438;SDS011;10880;50.302;18.736;2023-02-28T15:47:03;24.63;;;12.43;;
21438;SDS011;10880;50.302;18.736;2023-02-28T15:49:50;17.83;;;8.87;;
21438;SDS011;10880;50.302;18.736;2023-02-28T15:52:26;11.93;;;6.77;;
21438;SDS011;10880;50.302;18.736;2023-02-28T15:54:57;8.00;;;5.60;;
21438;SDS011;10880;50.302;18.736;2023-02-28T15:57:27;10.30;;;5.80;;
21438;SDS011;10880;50.302;18.736;2023-02-28T15:59:56;12.17;;;6.00;;
21438;SDS011;10880;50.302;18.736;2023-02-28T16:02:37;9.30;;;5.33;;
21438;SDS011;10880;50.302;18.736;2023-02-28T16:07:38;11.80;;;6.87;;
21438;SDS011;10880;50.302;18.736;2023-02-28T16:10:07;12.97;;;7.07;;
21438;SDS011;10880;50.302;18.736;2023-02-28T16:12:38;15.73;;;7.80;;
21438;SDS011;10880;50.302;18.736;2023-02-28T16:15:07;12.93;;;6.20;;
21438;SDS011;10880;50.302;18.736;2023-02-28T16:17:40;9.73;;;5.27;;
21438;SDS011;10880;50.302;18.736;2023-02-28T16:20:15;11.47;;;5.50;;
21438;SDS011;10880;50.302;18.736;2023-02-28T16:22:44;9.03;;;5.53;;
21438;SDS011;10880;50.302;18.736;2023-02-28T16:25:14;9.90;;;5.37;;
21438;SDS011;10880;50.302;18.736;2023-02-28T16:27:48;10.33;;;5.80;;
21438;SDS011;10880;50.302;18.736;2023-02-28T16:30:18;7.37;;;4.93;;
21438;SDS011;10880;50.302;18.736;2023-02-28T16:32:49;8.63;;;5.07;;
21438;SDS011;10880;50.302;18.736;2023-02-28T16:35:16;9.63;;;6.37;;
21438;SDS011;10880;50.302;18.736;2023-02-28T16:37:43;18.97;;;9.53;;
21438;SDS011;10880;50.302;18.736;2023-02-28T16:40:14;19.77;;;10.80;;
21438;SDS011;10880;50.302;18.736;2023-02-28T16:42:42;22.73;;;11.77;;
21438;SDS011;10880;50.302;18.736;2023-02-28T16:45:21;26.20;;;13.13;;
21438;SDS011;10880;50.302;18.736;2023-02-28T16:47:55;25.20;;;12.47;;
21438;SDS011;10880;50.302;18.736;2023-02-28T16:50:23;26.80;;;14.00;;
21438;SDS011;10880;50.302;18.736;2023-02-28T16:52:51;26.47;;;13.33;;
21438;SDS011;10880;50.302;18.736;2023-02-28T16:55:20;24.33;;;12.67;;
21438;SDS011;10880;50.302;18.736;2023-02-28T16:57:52;22.20;;;11.20;;
21438;SDS011;10880;50.302;18.736;2023-02-28T17:00:21;21.27;;;11.10;;
21438;SDS011;10880;50.302;18.736;2023-02-28T17:02:48;18.40;;;10.03;;
21438;SDS011;10880;50.302;18.736;2023-02-28T17:05:16;21.50;;;10.73;;
21438;SDS011;10880;50.302;18.736;2023-02-28T17:07:44;29.60;;;13.57;;
21438;SDS011;10880;50.302;18.736;2023-02-28T17:10:19;23.97;;;10.87;;
21438;SDS011;10880;50.302;18.736;2023-02-28T17:12:45;23.93;;;10.00;;
21438;SDS011;10880;50.302;18.736;2023-02-28T17:15:13;23.33;;;10.27;;